WetterOnline ( https://www.wetteronline.ch )

Wetter aktuell Waldkirch

Aktuelles Wetter: Freiburg/Flugplatz (236m)

6-stündlich | Neueste Meldungen
Ortszeit Temperatur Wetter
Fr, 19.04. 8:00 6.3° C bewölkt
Fr, 19.04. 2:00 5.7° C bewölkt
Do, 18.04. 20:00 8.3° C bewölkt
Do, 18.04. 14:00 7.6° C bewölkt
Do, 18.04. 8:00 3.2° C bedeckt
Do, 18.04. 2:00 4.1° C Sprühregen
Mi, 17.04. 20:00 6.8° C leichter Regen
Mi, 17.04. 14:00 8.9° C bewölkt
Ortszeit Temperatur Wetter
Fr, 19.04. 10:00 6.8° C bedeckt
Fr, 19.04. 9:30 6.7° C bewölkt
Fr, 19.04. 9:20 6.7° C bewölkt
Fr, 19.04. 9:10 6.7° C bewölkt
Fr, 19.04. 9:00 6.5° C bewölkt
Fr, 19.04. 8:50 6.5° C bewölkt
Fr, 19.04. 8:30 6.4° C bedeckt
Fr, 19.04. 8:00 6.3° C bewölkt
Fr, 19.04. 7:30 6.2° C bewölkt
Fr, 19.04. 7:00 5.8° C bewölkt
Ortszeit Relative Feuchte Sichtweite
Fr, 19.04. 8:00 73% 40 km
Fr, 19.04. 2:00 79% 40 km
Do, 18.04. 20:00 65% 60 km
Do, 18.04. 14:00 71% >70 km
Do, 18.04. 8:00 97% 16 km
Do, 18.04. 2:00 95% 26 km
Mi, 17.04. 20:00 78% 35 km
Mi, 17.04. 14:00 65% 50 km
Ortszeit Relative Feuchte Sichtweite
Fr, 19.04. 10:00 73% 40 km
Fr, 19.04. 9:30 71% 35 km
Fr, 19.04. 9:20 71% -
Fr, 19.04. 9:10 72% -
Fr, 19.04. 9:00 73% 35 km
Fr, 19.04. 8:50 73% -
Fr, 19.04. 8:30 73% 35 km
Fr, 19.04. 8:00 73% 40 km
Fr, 19.04. 7:30 74% 45 km
Fr, 19.04. 7:00 75% 35 km
Ortszeit Niederschlagsmenge Niederschlagsart
Fr, 19.04. 8:00 0.0 l/m2 in 12 Std. -
Fr, 19.04. 2:00 0.0 l/m2 in 6 Std. -
Do, 18.04. 20:00 0.7 l/m2 in 12 Std. -
Do, 18.04. 14:00 0.7 l/m2 in 6 Std. Regen
Do, 18.04. 8:00 9 l/m2 in 12 Std. Regen
Do, 18.04. 2:00 4 l/m2 in 6 Std. Regen
Mi, 17.04. 20:00 5 l/m2 in 12 Std. Regen
Mi, 17.04. 14:00 5 l/m2 in 6 Std. Regen
Ortszeit Niederschlagsmenge Niederschlagsart
Fr, 19.04. 10:00 0.0 l/m2 in 1 Std. -
Fr, 19.04. 9:30 0.0 l/m2 in 30 Min -
Fr, 19.04. 9:20 keine Meldung -
Fr, 19.04. 9:10 keine Meldung -
Fr, 19.04. 9:00 0.0 l/m2 in 1 Std. -
Fr, 19.04. 8:50 keine Meldung -
Fr, 19.04. 8:30 0.0 l/m2 in 30 Min -
Fr, 19.04. 8:00 0.0 l/m2 in 1 Std. -
Fr, 19.04. 7:30 0.0 l/m2 in 30 Min -
Fr, 19.04. 7:00 0.0 l/m2 in 1 Std. -
Ortszeit Stärke Spitze Richtung
km/h Bft. km/h Grad Sektor
Fr, 19.04. 8:00 18 3 36 210° SW
Fr, 19.04. 2:00 11 2 14 180° S
Do, 18.04. 20:00 7 2 29 360° N
Do, 18.04. 14:00 11 2 25 360° N
Do, 18.04. 8:00 4 1 14 320° NW
Do, 18.04. 2:00 4 1 25 30° NO
Mi, 17.04. 20:00 13 3 35 180° S
Mi, 17.04. 14:00 4 1 25 210° SW
Ortszeit Stärke Spitze Richtung
km/h Bft. km/h Grad Sektor
Fr, 19.04. 10:00 22 4 36 220° SW
Fr, 19.04. 9:30 20 4 33 220° SW
Fr, 19.04. 9:20 20 4 - 220° SW
Fr, 19.04. 9:10 20 4 - 220° SW
Fr, 19.04. 9:00 22 4 48 220° SW
Fr, 19.04. 8:50 22 4 - 220° SW
Fr, 19.04. 8:30 22 4 48 220° SW
Fr, 19.04. 8:00 18 3 36 210° SW
Fr, 19.04. 7:30 17 3 30 210° SW
Fr, 19.04. 7:00 15 3 28 210° SW
Ortszeit Untergrenze Bedeckung Gattung
total tief tief mittel hoch
Fr, 19.04. 8:00 1500 m 7/8 7/8 - - -
Fr, 19.04. 2:00 1470 m 7/8 7/8 - - -
Do, 18.04. 20:00 1500 m 7/8 7/8 - - -
Do, 18.04. 14:00 510 m 7/8 7/8 - - -
Do, 18.04. 8:00 420 m 8/8 8/8 - - -
Do, 18.04. 2:00 150 m 7/8 7/8 - - -
Mi, 17.04. 20:00 720 m 7/8 7/8 - - -
Mi, 17.04. 14:00 750 m 7/8 7/8 - - -
Ortszeit Bedeckungsgrad in Achtel und Wolkenuntergrenze
Fr, 19.04. 10:00 3(1260m) 7(1500m) 8(1800m)
Fr, 19.04. 9:30 2(1290m) 5(1800m) 7(2100m)
Fr, 19.04. 9:20 2(1290m) 5(1800m) 7(2100m)
Fr, 19.04. 9:10 7
Fr, 19.04. 9:00 2(1170m) 4(1410m) 7(1500m)
Fr, 19.04. 8:50 2(1170m) 4(1410m) 7(1500m)
Fr, 19.04. 8:30 6(1500m) 8(2100m)
Fr, 19.04. 8:00 6(1500m) 7(1800m)
Fr, 19.04. 7:30 7(1800m) 7(2100m)
Fr, 19.04. 7:00 7(1800m) 7(2700m) 8(3300m)
Ortszeit Luftdruck NN (hPa) Tendenz (hPa in 3 Std.)
Fr, 19.04. 8:00 1020 - 0,9
Fr, 19.04. 2:00 1022 - 0,1
Do, 18.04. 20:00 1021 + 1,6
Do, 18.04. 14:00 1019 + 1,5
Do, 18.04. 8:00 1016 + 1,6
Do, 18.04. 2:00 1014 + 0,2
Mi, 17.04. 20:00 1013 + 0,9
Mi, 17.04. 14:00 1013 - 0,2
Ortszeit Luftdruck NN (hPa) Tendenz (hPa in 3 Std.)
Fr, 19.04. 10:00 1020 - 0,5
Fr, 19.04. 9:30 1020 - 0,5
Fr, 19.04. 9:20 1020 keine Meldung
Fr, 19.04. 9:10 1020 keine Meldung
Fr, 19.04. 9:00 1020 - 0,6
Fr, 19.04. 8:50 1020 keine Meldung
Fr, 19.04. 8:30 1020 - 0,6
Fr, 19.04. 8:00 1020 - 0,9
Fr, 19.04. 7:30 1020 - 0,9
Fr, 19.04. 7:00 1020 - 1,2
Ortszeit Schneehöhe (cm)
Fr, 19.04. 8:00 0
Fr, 19.04. 2:00 0
Do, 18.04. 20:00 0
Do, 18.04. 14:00 0
Do, 18.04. 8:00 0
Do, 18.04. 2:00 0
Mi, 17.04. 20:00 0
Mi, 17.04. 14:00 0
Ortszeit Schneehöhe (cm)
Fr, 19.04. 10:00 0
Fr, 19.04. 9:30 0
Fr, 19.04. 9:20 0
Fr, 19.04. 9:10 -
Fr, 19.04. 9:00 0
Fr, 19.04. 8:50 0
Fr, 19.04. 8:30 0
Fr, 19.04. 8:00 0
Fr, 19.04. 7:30 0
Fr, 19.04. 7:00 0
Link zu dieser Seite / Seite empfehlen

Das Wetter in ...